Time;durP1;ratioP1;P1;durP2;ratioP2;P2;SDS_P1;SDS_P2;PMS_P1;PMS_P2;Temp;Humidity;BMP_temperature;BMP_pressure;BME280_temperature;BME280_humidity;BME280_pressure;Samples;Min_cycle;Max_cycle;Signal;HPM_P1;HPM_P2
2023/09/12 00:01:06;;;;;;;31.85;22.65;;;22.20;99.90;;;;;;5078756;28;20085;-75
2023/09/12 00:03:34;;;;;;;39.20;25.77;;;22.10;99.90;;;;;;5077954;28;20027;-75
2023/09/12 00:06:01;;;;;;;46.70;25.25;;;22.10;99.90;;;;;;5076987;28;20039;-75
2023/09/12 00:08:27;;;;;;;54.90;25.65;;;22.20;99.90;;;;;;5069431;28;20025;-76
2023/09/12 00:11:10;;;;;;;30.45;23.23;;;22.20;99.90;;;;;;5082125;28;20099;-75
2023/09/12 00:13:36;;;;;;;39.72;27.58;;;22.40;99.90;;;;;;5069344;28;20020;-75
2023/09/12 00:16:02;;;;;;;33.65;25.42;;;22.50;99.90;;;;;;5079548;28;20032;-75
2023/09/12 00:18:28;;;;;;;36.65;26.35;;;22.60;99.90;;;;;;5077187;28;20020;-75
2023/09/12 00:20:54;;;;;;;38.38;25.42;;;22.70;99.90;;;;;;5074660;28;20031;-75
2023/09/12 00:23:22;;;;;;;35.78;24.90;;;22.80;99.90;;;;;;5069198;28;20036;-75
2023/09/12 00:25:48;;;;;;;41.08;26.27;;;22.80;99.90;;;;;;5080302;28;20020;-75
2023/09/12 00:28:14;;;;;;;39.47;24.67;;;22.80;99.90;;;;;;5079781;28;20020;-75
2023/09/12 00:30:39;;;;;;;37.53;26.10;;;22.80;99.90;;;;;;5074437;28;20366;-75
2023/09/12 00:33:05;;;;;;;36.25;24.98;;;22.80;99.90;;;;;;5074086;28;20046;-75
2023/09/12 00:35:31;;;;;;;34.15;25.15;;;22.70;99.90;;;;;;5076834;28;20508;-75
2023/09/12 00:37:56;;;;;;;41.25;25.75;;;22.70;99.90;;;;;;5070812;28;20468;-75
2023/09/12 00:40:22;;;;;;;33.55;24.02;;;22.80;99.90;;;;;;5074225;28;20428;-75
2023/09/12 00:42:48;;;;;;;38.63;24.70;;;22.80;99.90;;;;;;5080864;28;20085;-75
2023/09/12 00:45:13;;;;;;;45.03;29.60;;;22.80;99.90;;;;;;5077282;28;20452;-75
2023/09/12 00:47:39;;;;;;;45.63;26.67;;;22.80;99.90;;;;;;5082863;28;20370;-75
2023/09/12 00:50:06;;;;;;;39.08;25.75;;;22.70;99.90;;;;;;5067720;28;20476;-75
2023/09/12 00:52:34;;;;;;;31.88;25.13;;;22.80;99.90;;;;;;5077124;28;20028;-75
2023/09/12 00:55:01;;;;;;;35.47;27.05;;;22.80;99.90;;;;;;5078278;28;20016;-75
2023/09/12 00:57:28;;;;;;;39.97;25.05;;;22.80;99.90;;;;;;5074460;28;20059;-75
2023/09/12 00:59:54;;;;;;;34.08;24.33;;;22.80;99.90;;;;;;5075281;28;20017;-75
2023/09/12 01:02:20;;;;;;;36.00;26.80;;;22.80;99.90;;;;;;5079954;28;20059;-74
2023/09/12 01:04:47;;;;;;;42.90;27.35;;;22.90;99.90;;;;;;5069887;28;20163;-75
2023/09/12 01:07:12;;;;;;;46.45;26.55;;;22.80;99.90;;;;;;5079347;28;20033;-75
2023/09/12 01:09:40;;;;;;;40.97;26.77;;;22.80;99.90;;;;;;5073063;28;20031;-75
2023/09/12 01:12:06;;;;;;;35.08;23.75;;;22.70;99.90;;;;;;5082185;28;20023;-75
2023/09/12 01:14:31;;;;;;;31.70;22.95;;;22.70;99.90;;;;;;5073686;28;20085;-75
2023/09/12 01:16:59;;;;;;;40.30;26.20;;;22.80;99.90;;;;;;5077352;28;20032;-75
2023/09/12 01:19:25;;;;;;;46.75;25.85;;;22.60;99.90;;;;;;5069278;28;20091;-75
2023/09/12 01:22:02;;;;;;;34.72;24.13;;;22.60;99.90;;;;;;5071536;28;20112;-75
2023/09/12 01:24:55;;;;;;;37.97;22.52;;;22.60;99.90;;;;;;5073586;28;20060;-74
2023/09/12 01:27:42;;;;;;;27.52;21.08;;;22.50;99.90;;;;;;5078145;28;20449;-75
2023/09/12 01:30:10;;;;;;;38.30;23.00;;;22.60;99.90;;;;;;5067755;28;20032;-75
2023/09/12 01:32:37;;;;;;;34.53;23.30;;;22.70;99.90;;;;;;5071199;28;20622;-75
2023/09/12 01:35:03;;;;;;;36.75;23.60;;;22.70;99.90;;;;;;5071351;28;20087;-74
2023/09/12 01:37:32;;;;;;;33.03;22.15;;;22.70;99.90;;;;;;5083133;28;20055;-75
2023/09/12 01:39:58;;;;;;;40.67;21.95;;;22.70;99.90;;;;;;5077958;28;20029;-74
2023/09/12 01:42:27;;;;;;;35.10;23.58;;;22.70;99.90;;;;;;5076985;28;20024;-75
2023/09/12 01:44:56;;;;;;;35.40;22.98;;;22.80;99.90;;;;;;5076134;28;20056;-74
2023/09/12 01:47:23;;;;;;;27.13;22.50;;;22.70;99.90;;;;;;5071145;28;20386;-75
2023/09/12 01:49:53;;;;;;;28.23;21.08;;;22.70;99.90;;;;;;5078990;28;20013;-75
2023/09/12 01:52:21;;;;;;;24.02;19.17;;;22.60;99.90;;;;;;5070345;28;20031;-74
2023/09/12 01:54:48;;;;;;;29.48;21.67;;;22.60;99.90;;;;;;5081801;28;20029;-75
2023/09/12 01:57:14;;;;;;;31.50;23.02;;;22.60;99.90;;;;;;5072847;28;20413;-74
2023/09/12 01:59:40;;;;;;;28.88;22.20;;;22.70;99.90;;;;;;5074289;28;20085;-74
2023/09/12 02:02:09;;;;;;;32.70;23.90;;;22.70;99.90;;;;;;5075722;28;20064;-75
2023/09/12 02:04:35;;;;;;;34.45;23.38;;;22.70;99.90;;;;;;5074179;28;20024;-74
2023/09/12 02:07:00;;;;;;;31.70;24.70;;;22.70;99.90;;;;;;5070762;28;20020;-74
2023/09/12 02:09:26;;;;;;;37.88;26.92;;;22.70;99.90;;;;;;5067155;28;20447;-74
2023/09/12 02:11:52;;;;;;;28.67;23.42;;;22.70;99.90;;;;;;5080243;28;20020;-74
2023/09/12 02:14:18;;;;;;;35.42;24.80;;;22.50;99.90;;;;;;5071369;28;20385;-74
2023/09/12 02:16:44;;;;;;;35.42;23.77;;;22.60;99.90;;;;;;5080678;28;20032;-74
2023/09/12 02:19:10;;;;;;;39.92;27.60;;;22.60;99.90;;;;;;5076604;28;20013;-75
2023/09/12 02:21:36;;;;;;;39.28;27.92;;;22.60;99.90;;;;;;5068628;28;20025;-74
2023/09/12 02:24:02;;;;;;;39.85;26.80;;;22.60;99.90;;;;;;5080883;28;20052;-75
2023/09/12 02:26:27;;;;;;;41.30;27.77;;;22.60;99.90;;;;;;5068201;28;20024;-74
2023/09/12 02:28:53;;;;;;;47.80;26.75;;;22.60;99.90;;;;;;5076999;28;20496;-74
2023/09/12 02:31:18;;;;;;;44.20;26.20;;;22.50;99.90;;;;;;5073264;28;20377;-74
2023/09/12 02:33:45;;;;;;;33.30;24.67;;;22.50;99.90;;;;;;5071289;28;20489;-74
2023/09/12 02:36:11;;;;;;;29.15;23.10;;;22.40;99.90;;;;;;5083266;28;20480;-75
2023/09/12 02:38:36;;;;;;;28.48;20.77;;;22.40;99.90;;;;;;5074534;28;20020;-75
2023/09/12 02:41:02;;;;;;;38.75;24.77;;;22.40;99.90;;;;;;5082337;28;20404;-75
2023/09/12 02:43:29;;;;;;;35.47;25.23;;;22.40;99.90;;;;;;5082152;28;20077;-74
2023/09/12 02:45:54;;;;;;;41.88;25.08;;;22.40;99.90;;;;;;5073458;28;20037;-75
2023/09/12 02:48:20;;;;;;;40.13;26.67;;;22.20;99.90;;;;;;5075172;28;20021;-75
2023/09/12 02:50:46;;;;;;;46.35;27.60;;;22.20;99.90;;;;;;5078041;28;20029;-75
2023/09/12 02:53:11;;;;;;;37.78;24.60;;;22.30;99.90;;;;;;5071490;28;20030;-75
2023/09/12 02:55:41;;;;;;;31.90;24.98;;;22.30;99.90;;;;;;5077035;28;20492;-75
2023/09/12 02:58:07;;;;;;;47.45;27.35;;;22.30;99.90;;;;;;5069177;28;20063;-75
2023/09/12 03:00:37;;;;;;;82.78;32.33;;;22.20;99.90;;;;;;5081960;28;20089;-75
2023/09/12 03:03:03;;;;;;;44.88;28.15;;;22.00;99.90;;;;;;5067553;28;20025;-75
2023/09/12 03:05:28;;;;;;;40.85;29.48;;;22.00;99.90;;;;;;5077708;28;20031;-75
2023/09/12 03:07:54;;;;;;;41.15;28.75;;;22.10;99.90;;;;;;5071096;28;20165;-75
2023/09/12 03:10:20;;;;;;;36.40;26.63;;;22.10;99.90;;;;;;5078207;28;20029;-75
2023/09/12 03:12:45;;;;;;;38.72;28.00;;;22.10;99.90;;;;;;5075965;28;20025;-75
2023/09/12 03:15:11;;;;;;;42.13;28.88;;;22.10;99.90;;;;;;5076040;28;20511;-75
2023/09/12 03:17:37;;;;;;;37.38;26.55;;;22.10;99.90;;;;;;5078424;28;20024;-75
2023/09/12 03:20:07;;;;;;;43.97;27.13;;;22.10;99.90;;;;;;5079484;28;20056;-75
2023/09/12 03:22:37;;;;;;;41.35;25.40;;;22.00;99.90;;;;;;5075989;28;20384;-75
2023/09/12 03:25:03;;;;;;;36.40;25.10;;;21.90;99.90;;;;;;5078452;28;20028;-75
2023/09/12 03:27:29;;;;;;;36.30;25.38;;;22.00;99.90;;;;;;5085106;28;20021;-75
2023/09/12 03:29:54;;;;;;;38.85;25.35;;;21.90;99.90;;;;;;5071625;28;20111;-75
2023/09/12 03:32:20;;;;;;;42.72;25.23;;;22.00;99.90;;;;;;5075974;28;20031;-75
2023/09/12 03:34:46;;;;;;;36.92;23.88;;;22.00;99.90;;;;;;5076185;28;20518;-74
2023/09/12 03:37:11;;;;;;;34.60;24.08;;;22.10;99.90;;;;;;5076582;28;20047;-75
2023/09/12 03:39:37;;;;;;;26.27;21.65;;;22.10;99.90;;;;;;5073497;28;20071;-74
2023/09/12 03:42:03;;;;;;;28.80;21.73;;;22.00;99.90;;;;;;5081271;28;20470;-75
2023/09/12 03:44:28;;;;;;;31.48;23.23;;;22.10;99.90;;;;;;5077532;28;20481;-75
2023/09/12 03:46:54;;;;;;;24.02;20.92;;;22.10;99.90;;;;;;5073283;28;20063;-75
2023/09/12 03:49:20;;;;;;;27.85;20.88;;;22.10;99.90;;;;;;5079510;28;21565;-74
2023/09/12 03:51:45;;;;;;;24.80;19.58;;;22.00;99.90;;;;;;5074574;28;20556;-75
2023/09/12 03:54:11;;;;;;;30.77;20.70;;;22.10;99.90;;;;;;5079902;28;20031;-75
2023/09/12 03:56:37;;;;;;;30.65;21.20;;;22.10;99.90;;;;;;5069515;28;20032;-74
2023/09/12 03:59:02;;;;;;;33.72;23.80;;;22.10;99.90;;;;;;5081737;28;20539;-74
2023/09/12 04:01:28;;;;;;;30.58;21.52;;;22.10;99.90;;;;;;5075440;28;20040;-75
2023/09/12 04:03:54;;;;;;;40.17;23.67;;;22.10;99.90;;;;;;5063354;28;20458;-75
2023/09/12 04:06:20;;;;;;;45.88;27.80;;;22.00;99.90;;;;;;5081666;28;20032;-75
2023/09/12 04:08:45;;;;;;;41.67;27.63;;;22.10;99.90;;;;;;5078509;28;20039;-75
2023/09/12 04:11:11;;;;;;;35.72;26.90;;;22.00;99.90;;;;;;5068888;28;20068;-75
2023/09/12 04:13:37;;;;;;;38.33;26.73;;;22.00;99.90;;;;;;5082076;28;20047;-74
2023/09/12 04:16:02;;;;;;;44.92;28.48;;;22.00;99.90;;;;;;5085391;28;20469;-75
2023/09/12 04:18:28;;;;;;;39.90;29.27;;;22.00;99.90;;;;;;5077337;28;20427;-75
2023/09/12 04:20:57;;;;;;;36.97;27.95;;;22.00;99.90;;;;;;5080850;28;20032;-75
2023/09/12 04:23:25;;;;;;;38.72;28.35;;;22.00;99.90;;;;;;5079139;28;20035;-75
2023/09/12 04:25:51;;;;;;;39.58;28.77;;;22.00;99.90;;;;;;5076253;28;20101;-75
2023/09/12 04:28:16;;;;;;;42.85;28.75;;;22.00;99.90;;;;;;5079948;28;20528;-74
2023/09/12 04:30:42;;;;;;;42.38;29.90;;;22.00;99.90;;;;;;5076960;28;20429;-75
2023/09/12 04:33:08;;;;;;;41.83;28.85;;;22.00;99.90;;;;;;5076083;28;20028;-74
2023/09/12 04:35:35;;;;;;;41.15;29.67;;;22.00;99.90;;;;;;5083605;28;20380;-75
2023/09/12 04:38:01;;;;;;;42.50;29.13;;;22.00;99.90;;;;;;5069250;28;20078;-75
2023/09/12 04:40:26;;;;;;;49.53;33.85;;;22.00;99.90;;;;;;5074013;28;20025;-74
2023/09/12 04:42:53;;;;;;;52.53;33.78;;;22.00;99.90;;;;;;5076710;28;20021;-74
2023/09/12 04:45:19;;;;;;;51.80;33.63;;;22.00;99.90;;;;;;5073231;28;20060;-74
2023/09/12 04:47:44;;;;;;;55.50;33.22;;;22.00;99.90;;;;;;5076549;28;20071;-74
2023/09/12 04:50:11;;;;;;;49.80;32.40;;;21.90;99.90;;;;;;5068836;28;20034;-75
2023/09/12 04:52:37;;;;;;;47.35;33.20;;;21.80;99.90;;;;;;5080335;28;20044;-75
2023/09/12 04:55:04;;;;;;;57.20;32.65;;;21.80;99.90;;;;;;5068651;28;20037;-74
2023/09/12 04:57:30;;;;;;;55.97;34.03;;;21.80;99.90;;;;;;5083190;28;20111;-74
2023/09/12 04:59:58;;;;;;;46.97;30.75;;;21.80;99.90;;;;;;5076357;28;20024;-74
2023/09/12 05:02:25;;;;;;;53.67;33.45;;;21.80;99.90;;;;;;5069299;28;20074;-75
2023/09/12 05:04:51;;;;;;;46.70;32.28;;;21.80;99.90;;;;;;5081195;28;20023;-74
2023/09/12 05:07:17;;;;;;;56.90;31.98;;;21.80;99.90;;;;;;5083342;28;20040;-74
2023/09/12 05:09:42;;;;;;;48.83;31.30;;;21.60;99.90;;;;;;5075592;28;20031;-74
2023/09/12 05:12:08;;;;;;;46.65;30.85;;;21.60;99.90;;;;;;5076587;28;20016;-75
2023/09/12 05:14:34;;;;;;;42.97;29.90;;;21.70;99.90;;;;;;5073865;28;20052;-75
2023/09/12 05:17:01;;;;;;;49.75;31.30;;;21.70;99.90;;;;;;5085199;28;20134;-74
2023/09/12 05:19:27;;;;;;;47.10;31.30;;;21.70;99.90;;;;;;5073210;28;20526;-74
2023/09/12 05:21:53;;;;;;;45.20;31.60;;;21.60;99.90;;;;;;5070752;28;20025;-74
2023/09/12 05:24:19;;;;;;;42.05;29.75;;;21.60;99.90;;;;;;5075940;28;20024;-74
2023/09/12 05:26:44;;;;;;;49.00;31.33;;;21.60;99.90;;;;;;5068574;28;20397;-74
2023/09/12 05:29:10;;;;;;;49.72;30.23;;;21.40;99.90;;;;;;5074350;28;20024;-74
2023/09/12 05:31:36;;;;;;;48.47;28.55;;;21.50;99.90;;;;;;5069329;28;20028;-74
2023/09/12 05:34:01;;;;;;;35.55;27.58;;;21.50;99.90;;;;;;5066526;28;20029;-75
2023/09/12 05:36:27;;;;;;;42.42;29.42;;;21.50;99.90;;;;;;5077044;28;20476;-75
2023/09/12 05:38:53;;;;;;;42.30;29.23;;;21.60;99.90;;;;;;5081943;28;20052;-74
2023/09/12 05:41:18;;;;;;;45.35;29.88;;;21.70;99.90;;;;;;5077479;28;20114;-74
2023/09/12 05:43:44;;;;;;;48.50;31.92;;;21.70;99.90;;;;;;5072641;28;20376;-74
2023/09/12 05:46:10;;;;;;;48.75;29.50;;;21.70;99.90;;;;;;5069590;28;20564;-74
2023/09/12 05:48:36;;;;;;;41.92;30.30;;;21.70;99.90;;;;;;5078096;28;20021;-75
2023/09/12 05:51:02;;;;;;;45.88;28.38;;;21.70;99.90;;;;;;5071578;28;20542;-74
2023/09/12 05:53:27;;;;;;;55.25;34.47;;;21.60;99.90;;;;;;5078291;28;20028;-74
2023/09/12 05:55:53;;;;;;;58.05;32.83;;;21.60;99.90;;;;;;5067852;28;20538;-75
2023/09/12 05:58:19;;;;;;;46.00;29.83;;;21.50;99.90;;;;;;5078066;28;20556;-74
2023/09/12 06:00:46;;;;;;;47.70;29.70;;;21.40;99.90;;;;;;5070488;28;20496;-75
2023/09/12 06:03:14;;;;;;;46.85;30.50;;;21.40;99.90;;;;;;5071966;28;20070;-74
2023/09/12 06:05:40;;;;;;;55.15;33.28;;;21.50;99.90;;;;;;5074953;28;20031;-75
2023/09/12 06:08:06;;;;;;;45.25;30.60;;;21.50;99.90;;;;;;5075013;28;20336;-75
2023/09/12 06:10:32;;;;;;;43.97;30.42;;;21.50;99.90;;;;;;5080210;28;20439;-75
2023/09/12 06:12:57;;;;;;;51.22;34.28;;;21.60;99.90;;;;;;5073887;28;20020;-75
2023/09/12 06:15:23;;;;;;;43.90;32.20;;;21.60;99.90;;;;;;5069869;28;20477;-75
2023/09/12 06:17:49;;;;;;;51.90;36.25;;;21.60;99.90;;;;;;5078535;28;20031;-76
2023/09/12 06:20:17;;;;;;;48.88;33.35;;;21.70;99.90;;;;;;5075847;28;20028;-76
2023/09/12 06:22:44;;;;;;;47.15;31.73;;;21.70;99.90;;;;;;5070419;28;20028;-74
2023/09/12 06:25:19;;;;;;;53.75;36.17;;;21.70;99.90;;;;;;5064947;28;20025;-75
2023/09/12 06:27:45;;;;;;;46.40;32.22;;;21.70;99.90;;;;;;5077271;28;20024;-77
2023/09/12 06:30:11;;;;;;;53.58;34.33;;;21.70;99.90;;;;;;5078812;28;20073;-77
2023/09/12 06:32:38;;;;;;;60.30;35.22;;;21.70;99.90;;;;;;5071836;28;20028;-77
2023/09/12 06:35:04;;;;;;;61.05;40.05;;;21.70;99.90;;;;;;5073231;28;20021;-75
2023/09/12 06:37:29;;;;;;;51.65;34.50;;;21.70;99.90;;;;;;5064574;28;20059;-75
2023/09/12 06:39:55;;;;;;;54.00;35.95;;;21.70;99.90;;;;;;5080139;28;20125;-76
2023/09/12 06:42:21;;;;;;;63.63;39.40;;;21.70;99.90;;;;;;5075328;28;20143;-76
2023/09/12 06:44:47;;;;;;;54.83;37.60;;;21.70;99.90;;;;;;5071481;28;20521;-75
2023/09/12 06:47:13;;;;;;;55.35;35.95;;;21.70;99.90;;;;;;5078985;28;20024;-76
2023/09/12 06:49:39;;;;;;;53.03;34.95;;;21.70;99.90;;;;;;5069126;28;20031;-75
2023/09/12 06:52:05;;;;;;;58.90;38.70;;;21.70;99.90;;;;;;5071590;28;20028;-75
2023/09/12 06:54:32;;;;;;;55.28;35.75;;;21.80;99.90;;;;;;5089325;28;20115;-75
2023/09/12 06:56:57;;;;;;;57.92;37.70;;;21.80;99.90;;;;;;5078483;28;20032;-75
2023/09/12 06:59:23;;;;;;;62.08;39.92;;;21.90;99.90;;;;;;5070930;28;20116;-75
2023/09/12 07:01:49;;;;;;;57.92;38.92;;;21.90;99.90;;;;;;5078002;28;20362;-75
2023/09/12 07:04:14;;;;;;;61.50;37.90;;;21.90;99.90;;;;;;5068421;28;20090;-75
2023/09/12 07:06:40;;;;;;;59.85;38.65;;;21.90;99.90;;;;;;5077737;28;20100;-74
2023/09/12 07:09:06;;;;;;;64.93;38.53;;;21.80;99.90;;;;;;5075880;28;20389;-74
2023/09/12 07:11:32;;;;;;;64.20;39.58;;;21.90;99.90;;;;;;5068436;28;20025;-74
2023/09/12 07:13:57;;;;;;;67.03;41.30;;;21.90;99.90;;;;;;5078053;28;20101;-75
2023/09/12 07:16:23;;;;;;;64.93;40.88;;;21.90;99.90;;;;;;5068490;28;20032;-76
2023/09/12 07:18:50;;;;;;;62.75;39.42;;;21.90;99.90;;;;;;5079423;28;20036;-74
2023/09/12 07:21:16;;;;;;;57.55;40.40;;;21.90;99.90;;;;;;5070224;28;20118;-74
2023/09/12 07:23:41;;;;;;;54.47;36.55;;;21.90;99.90;;;;;;5068966;28;20469;-74
2023/09/12 07:26:13;;;;;;;60.78;39.50;;;21.90;99.90;;;;;;5068802;28;20439;-74
2023/09/12 07:28:39;;;;;;;61.53;39.00;;;21.90;99.90;;;;;;5078360;28;20062;-73
2023/09/12 07:31:05;;;;;;;62.22;41.55;;;21.90;99.90;;;;;;5071433;28;20028;-74
2023/09/12 07:33:31;;;;;;;65.63;42.97;;;21.90;99.90;;;;;;5071911;28;20020;-74
2023/09/12 07:35:56;;;;;;;63.80;42.80;;;21.90;99.90;;;;;;5080143;28;20076;-73
2023/09/12 07:38:22;;;;;;;71.88;43.83;;;21.80;99.90;;;;;;5073585;28;20444;-72
2023/09/12 07:40:48;;;;;;;65.90;43.20;;;21.80;99.90;;;;;;5071902;28;20047;-72
2023/09/12 07:43:14;;;;;;;73.30;46.50;;;21.80;99.90;;;;;;5068986;28;20024;-72
2023/09/12 07:45:39;;;;;;;65.60;42.25;;;21.90;99.90;;;;;;5078027;28;20374;-73
2023/09/12 07:48:11;;;;;;;79.68;45.95;;;21.90;99.90;;;;;;5073886;28;20138;-73
2023/09/12 07:50:40;;;;;;;82.78;46.75;;;21.90;99.90;;;;;;5072722;28;20127;-77
2023/09/12 07:53:06;;;;;;;75.97;44.42;;;21.90;99.90;;;;;;5072917;28;20016;-74
2023/09/12 07:55:45;;;;;;;82.57;45.83;;;21.90;99.90;;;;;;5080287;28;20031;-73
2023/09/12 07:58:21;;;;;;;85.15;47.50;;;22.00;99.90;;;;;;5073313;28;20047;-74
2023/09/12 08:00:47;;;;;;;79.63;51.78;;;22.00;99.90;;;;;;5080282;28;20016;-73
2023/09/12 08:03:13;;;;;;;78.22;49.45;;;22.10;99.90;;;;;;5072464;28;20032;-73
2023/09/12 08:05:38;;;;;;;83.35;48.25;;;22.20;99.90;;;;;;5073827;28;20020;-73
2023/09/12 08:08:04;;;;;;;75.55;46.35;;;22.30;99.90;;;;;;5069923;28;20504;-73
2023/09/12 08:10:30;;;;;;;65.97;43.67;;;22.30;99.90;;;;;;5074358;28;20029;-73
2023/09/12 08:12:56;;;;;;;81.00;46.70;;;22.40;99.90;;;;;;5083089;28;20024;-74
2023/09/12 08:15:22;;;;;;;69.03;44.33;;;22.40;99.90;;;;;;5072301;28;20366;-73
2023/09/12 08:17:51;;;;;;;75.93;44.83;;;22.40;99.90;;;;;;5078073;28;20100;-73
2023/09/12 08:20:20;;;;;;;69.25;41.58;;;22.50;99.90;;;;;;5076776;28;20020;-73
2023/09/12 08:22:46;;;;;;;65.85;42.03;;;22.60;99.90;;;;;;5073996;28;20020;-72
2023/09/12 08:25:14;;;;;;;58.20;39.42;;;22.60;99.90;;;;;;5084531;28;20020;-72
2023/09/12 08:27:40;;;;;;;60.70;36.45;;;22.50;99.90;;;;;;5070833;28;20111;-72
2023/09/12 08:30:06;;;;;;;54.83;35.65;;;22.60;99.90;;;;;;5073818;28;20095;-72
2023/09/12 08:32:31;;;;;;;60.22;38.65;;;22.60;99.90;;;;;;5070720;28;20054;-72
2023/09/12 08:34:58;;;;;;;54.47;34.88;;;22.70;99.90;;;;;;5076128;28;20028;-72
2023/09/12 08:37:24;;;;;;;47.85;32.80;;;22.80;99.90;;;;;;5069821;28;20420;-72
2023/09/12 08:39:56;;;;;;;44.35;33.42;;;22.80;99.90;;;;;;5078188;28;20450;-72
2023/09/12 08:42:22;;;;;;;41.33;29.38;;;22.80;99.90;;;;;;5068626;28;20445;-72
2023/09/12 08:44:48;;;;;;;40.40;28.58;;;22.80;99.90;;;;;;5076185;28;20029;-72
2023/09/12 08:47:15;;;;;;;38.42;25.50;;;22.80;99.90;;;;;;5068662;28;20550;-72
2023/09/12 08:49:42;;;;;;;43.05;29.85;;;22.70;99.90;;;;;;5070803;28;20100;-72
2023/09/12 08:52:08;;;;;;;50.60;32.25;;;22.70;99.90;;;;;;5071996;28;20101;-71
2023/09/12 08:54:33;;;;;;;48.42;31.67;;;22.80;99.90;;;;;;5071019;28;20359;-71
2023/09/12 08:57:03;;;;;;;44.47;29.63;;;22.80;99.90;;;;;;5069394;28;21035;-71
2023/09/12 08:59:31;;;;;;;42.90;29.58;;;22.90;99.90;;;;;;5070494;28;20143;-71
2023/09/12 09:01:58;;;;;;;34.22;25.48;;;22.80;99.90;;;;;;5071323;28;20028;-72
2023/09/12 09:04:28;;;;;;;39.78;27.23;;;22.90;99.90;;;;;;5068765;28;20458;-72
2023/09/12 09:06:55;;;;;;;30.63;24.80;;;23.10;99.90;;;;;;5073356;28;20512;-72
2023/09/12 09:09:22;;;;;;;36.13;25.17;;;23.10;99.90;;;;;;5074691;28;20100;-72
2023/09/12 09:11:48;;;;;;;45.53;26.17;;;23.10;99.90;;;;;;5068242;28;20028;-72
2023/09/12 09:14:13;;;;;;;42.47;28.85;;;23.00;99.90;;;;;;5074943;28;20050;-72
2023/09/12 09:16:39;;;;;;;42.05;27.73;;;23.00;99.90;;;;;;5073378;28;20124;-72
2023/09/12 09:19:09;;;;;;;36.03;26.20;;;22.90;99.90;;;;;;5066838;28;20417;-72
2023/09/12 09:21:38;;;;;;;41.72;28.52;;;23.00;99.90;;;;;;5072783;28;20448;-72
2023/09/12 09:24:09;;;;;;;41.15;28.40;;;23.00;99.90;;;;;;5067898;28;20020;-72
2023/09/12 09:27:00;;;;;;;40.83;27.48;;;23.10;99.90;;;;;;5068693;28;20025;-73
2023/09/12 09:29:31;;;;;;;38.42;27.40;;;23.10;99.90;;;;;;5068258;28;20567;-73
2023/09/12 09:31:58;;;;;;;37.03;25.02;;;23.40;99.90;;;;;;5070757;28;20096;-73
2023/09/12 09:34:24;;;;;;;28.52;22.08;;;23.50;99.90;;;;;;5079230;28;20040;-72
2023/09/12 09:36:52;;;;;;;36.15;24.08;;;23.60;99.90;;;;;;5064096;28;20641;-70
2023/09/12 09:39:19;;;;;;;31.02;21.25;;;23.60;99.90;;;;;;5072632;28;20016;-71
2023/09/12 09:42:03;;;;;;;28.42;22.13;;;23.70;99.90;;;;;;5069992;28;20115;-71
2023/09/12 09:44:30;;;;;;;32.17;22.60;;;23.80;99.90;;;;;;5076241;28;20441;-72
2023/09/12 09:47:02;;;;;;;34.78;25.60;;;24.00;99.90;;;;;;5071946;28;20025;-71
2023/09/12 09:49:30;;;;;;;33.25;21.75;;;24.10;99.90;;;;;;5078059;28;20475;-71
2023/09/12 09:51:58;;;;;;;30.42;20.17;;;24.00;99.90;;;;;;5066372;28;20078;-72
2023/09/12 09:54:25;;;;;;;31.45;22.77;;;24.00;99.90;;;;;;5080670;28;20039;-73
2023/09/12 09:56:55;;;;;;;31.08;21.40;;;24.20;99.90;;;;;;5065997;28;20079;-72
2023/09/12 09:59:23;;;;;;;30.92;23.30;;;24.30;99.90;;;;;;5078389;28;20028;-73
2023/09/12 10:01:53;;;;;;;36.83;26.00;;;24.40;99.90;;;;;;5073137;28;20029;-73
2023/09/12 10:04:20;;;;;;;33.65;22.90;;;24.30;99.90;;;;;;5074553;28;20024;-72
2023/09/12 10:06:46;;;;;;;37.70;25.35;;;24.10;99.90;;;;;;5078712;28;20036;-73
2023/09/12 10:09:14;;;;;;;33.20;23.85;;;23.90;99.90;;;;;;5068665;28;20153;-72
2023/09/12 10:11:42;;;;;;;36.58;25.75;;;24.00;99.90;;;;;;5076816;28;20094;-73
2023/09/12 10:14:08;;;;;;;38.92;25.15;;;24.00;99.90;;;;;;5073789;28;20024;-74
2023/09/12 10:16:44;;;;;;;32.40;23.25;;;24.10;99.90;;;;;;5076673;28;20035;-72
2023/09/12 10:19:23;;;;;;;32.45;22.48;;;24.40;99.90;;;;;;5069137;28;20013;-73
2023/09/12 10:22:16;;;;;;;35.05;24.08;;;24.60;99.90;;;;;;5072656;28;20024;-72
2023/09/12 10:24:43;;;;;;;33.35;22.48;;;24.80;99.90;;;;;;5065799;28;20029;-72
2023/09/12 10:27:11;;;;;;;26.52;20.05;;;24.80;99.90;;;;;;5074701;28;20040;-74
2023/09/12 10:29:36;;;;;;;31.33;20.05;;;24.90;99.90;;;;;;5069023;28;20054;-74
2023/09/12 10:32:02;;;;;;;32.15;21.77;;;25.00;99.90;;;;;;5073373;28;20031;-73
2023/09/12 10:34:31;;;;;;;28.50;20.25;;;25.20;99.90;;;;;;5068594;28;20041;-73
2023/09/12 10:37:04;;;;;;;26.15;18.98;;;25.40;99.90;;;;;;5071739;28;20131;-73
2023/09/12 10:39:32;;;;;;;27.77;19.02;;;25.40;99.90;;;;;;5069207;28;20044;-73
2023/09/12 10:41:58;;;;;;;23.13;17.25;;;25.40;99.90;;;;;;5059084;28;20031;-73
2023/09/12 10:44:24;;;;;;;27.73;18.65;;;25.50;99.90;;;;;;5082261;28;20111;-73
2023/09/12 10:46:53;;;;;;;20.67;17.60;;;25.60;99.90;;;;;;5075286;28;20028;-73
2023/09/12 10:49:19;;;;;;;24.95;18.40;;;25.70;99.90;;;;;;5083486;28;20103;-74
2023/09/12 10:51:46;;;;;;;24.58;16.17;;;25.60;99.90;;;;;;5069148;28;20114;-73
2023/09/12 10:54:26;;;;;;;22.45;16.33;;;25.60;99.90;;;;;;5074750;28;20036;-72
2023/09/12 10:57:04;;;;;;;21.95;14.73;;;25.80;99.90;;;;;;5062358;28;20029;-73
2023/09/12 10:59:31;;;;;;;22.75;13.98;;;25.90;99.90;;;;;;5075177;28;20570;-72
2023/09/12 11:02:48;;;;;;;;;;;;;;;;;;;;;
2023/09/12 11:05:31;;;;;;;17.08;14.05;;;26.00;99.90;;;;;;5074843;28;20028;-77
2023/09/12 11:07:58;;;;;;;19.25;15.05;;;26.30;99.90;;;;;;5080026;28;20119;-74
2023/09/12 11:10:31;;;;;;;20.50;16.25;;;26.30;99.90;;;;;;5067614;28;20031;-73
2023/09/12 11:13:19;;;;;;;23.40;17.90;;;26.50;99.90;;;;;;5062176;28;20025;-73
2023/09/12 11:16:10;;;;;;;22.23;16.63;;;26.60;99.90;;;;;;5051569;28;20037;-74
2023/09/12 11:19:13;;;;;;;21.65;17.40;;;26.60;99.90;;;;;;4982289;28;20028;-74
2023/09/12 11:21:39;;;;;;;20.20;16.77;;;26.70;99.90;;;;;;5014254;28;20028;-74
2023/09/12 11:24:05;;;;;;;23.27;17.17;;;26.80;99.90;;;;;;5072662;28;20423;-74
2023/09/12 11:26:31;;;;;;;26.88;18.65;;;26.60;99.90;;;;;;5077040;28;20552;-74
2023/09/12 11:28:57;;;;;;;22.67;17.90;;;26.50;99.90;;;;;;5075565;28;20103;-74
2023/09/12 11:31:28;;;;;;;23.75;19.48;;;26.40;99.90;;;;;;5073563;28;20029;-73
2023/09/12 11:33:54;;;;;;;21.50;16.35;;;26.50;99.90;;;;;;5081273;28;20075;-72
2023/09/12 11:36:20;;;;;;;20.70;15.48;;;26.40;99.90;;;;;;5056068;28;20666;-72
2023/09/12 11:38:50;;;;;;;26.13;18.80;;;26.20;99.90;;;;;;5007495;28;20117;-73
2023/09/12 11:41:42;;;;;;;27.88;19.70;;;26.20;99.90;;;;;;4956450;28;20107;-72
2023/09/12 11:44:07;;;;;;;24.10;19.65;;;26.10;99.90;;;;;;5052204;28;20415;-73
2023/09/12 11:46:35;;;;;;;19.98;16.77;;;26.10;99.90;;;;;;5082421;28;20111;-73
2023/09/12 11:49:02;;;;;;;25.98;18.02;;;25.90;99.90;;;;;;5069593;28;20021;-72
2023/09/12 11:51:29;;;;;;;19.55;14.55;;;25.90;99.90;;;;;;5072522;28;20027;-73
2023/09/12 11:53:57;;;;;;;18.13;13.98;;;25.90;99.90;;;;;;5067468;28;20478;-74
2023/09/12 11:56:23;;;;;;;18.02;15.80;;;25.80;99.90;;;;;;5082201;28;20028;-72
2023/09/12 11:58:49;;;;;;;20.42;15.95;;;26.00;99.90;;;;;;5078418;28;20028;-72
2023/09/12 12:01:15;;;;;;;18.63;15.70;;;26.10;99.90;;;;;;5076137;28;20036;-72
2023/09/12 12:03:41;;;;;;;16.58;14.35;;;26.00;99.90;;;;;;5067637;28;20028;-72
2023/09/12 12:06:07;;;;;;;15.63;13.85;;;26.00;99.90;;;;;;5076982;28;20544;-73
2023/09/12 12:08:32;;;;;;;17.08;14.57;;;26.00;99.90;;;;;;5080919;28;20024;-73
2023/09/12 12:10:59;;;;;;;22.20;14.35;;;26.20;99.90;;;;;;5070636;28;20025;-73
2023/09/12 12:13:24;;;;;;;18.95;14.85;;;26.40;99.90;;;;;;5097649;28;20028;-74
2023/09/12 12:15:50;;;;;;;17.48;14.77;;;26.60;99.90;;;;;;5071017;28;20052;-73
2023/09/12 12:18:16;;;;;;;21.63;13.57;;;26.70;99.90;;;;;;5074009;28;20107;-74
2023/09/12 12:20:42;;;;;;;16.58;14.35;;;26.80;99.90;;;;;;5079306;28;20690;-75
2023/09/12 12:23:08;;;;;;;15.90;13.65;;;27.00;99.90;;;;;;5076546;28;20024;-74
2023/09/12 12:25:35;;;;;;;12.98;11.60;;;27.00;99.90;;;;;;5081931;28;20026;-74
2023/09/12 12:28:02;;;;;;;15.65;12.85;;;26.90;99.90;;;;;;5068533;28;20025;-74
2023/09/12 12:30:32;;;;;;;19.38;13.05;;;26.90;99.90;;;;;;5073932;28;20024;-75